Benton, Kansas
Current Conditions -  °F | °C
As of 12:54 PM on Tuesday 27 Jan 2015 (Local Time) from KAAO Reporting Station
Clear Clear  
Wind Chill: 66°   Ceiling: Unl
Heat Index: 66°   Visibility: 10mi
Dew Point: 33°   Wind: 15mph
Humidity: 29%   Direction: 180°S
Pressure: 30.08"   Gusts: NA
Location:  37.79°N, 97.11°W
Report Text: KAAO 271854Z AUTO 18013KT 10SM CLR 19/01 A3008 RMK AO2 SLP183 T01890006
Loading
Personal Weather Stations






























Interactive Weather Map New forecast layout! Learn more

10-Day Weather Forecast

Advertisements
Track Severe Weather on mobile